Time;durP1;ratioP1;P1;durP2;ratioP2;P2;SDS_P1;SDS_P2;PMS_P1;PMS_P2;Temp;Humidity;BMP_temperature;BMP_pressure;BME280_temperature;BME280_humidity;BME280_pressure;Samples;Min_cycle;Max_cycle;Signal;HPM_P1;HPM_P2
2023/06/10 00:00:43;;;;;;;0.80;0.80;;;22.40;73.30;;;;;;5004640;28;20064;-78
2023/06/10 00:03:09;;;;;;;0.90;0.90;;;22.40;73.30;;;;;;5005752;28;20455;-78
2023/06/10 00:05:35;;;;;;;1.00;1.00;;;22.40;73.50;;;;;;5008061;28;20138;-77
2023/06/10 00:08:06;;;;;;;0.82;0.82;;;22.40;73.70;;;;;;5003582;28;20050;-77
2023/06/10 00:10:36;;;;;;;0.98;0.98;;;22.40;73.70;;;;;;5005360;28;20484;-77
2023/06/10 00:13:05;;;;;;;0.70;0.70;;;22.40;73.70;;;;;;5004620;28;20050;-77
2023/06/10 00:15:31;;;;;;;0.68;0.68;;;22.40;74.00;;;;;;5006065;28;20056;-77
2023/06/10 00:17:56;;;;;;;1.00;1.00;;;22.40;73.80;;;;;;5003387;28;20058;-77
2023/06/10 00:20:23;;;;;;;0.82;0.82;;;22.40;73.80;;;;;;5003212;28;20455;-78
2023/06/10 00:22:49;;;;;;;0.90;0.90;;;22.30;73.80;;;;;;5004183;28;20405;-78
2023/06/10 00:25:15;;;;;;;0.70;0.70;;;22.30;73.90;;;;;;5003425;28;20050;-77
2023/06/10 00:27:41;;;;;;;0.85;0.85;;;22.40;74.00;;;;;;5002422;28;20057;-77
2023/06/10 00:30:07;;;;;;;0.77;0.77;;;22.30;73.90;;;;;;5006411;28;20041;-78
2023/06/10 00:32:36;;;;;;;0.93;0.90;;;22.30;73.80;;;;;;5005803;28;20073;-78
2023/06/10 00:35:05;;;;;;;0.70;0.70;;;22.30;73.90;;;;;;5004840;28;20053;-78
2023/06/10 00:37:32;;;;;;;0.80;0.80;;;22.30;73.80;;;;;;5003484;28;20042;-77
2023/06/10 00:39:57;;;;;;;0.90;0.90;;;22.30;73.90;;;;;;5004698;28;20099;-77
2023/06/10 00:42:24;;;;;;;0.80;0.80;;;22.40;73.90;;;;;;5004628;28;20129;-78
2023/06/10 00:44:50;;;;;;;0.70;0.70;;;22.30;73.80;;;;;;5003682;28;20042;-78
2023/06/10 00:47:16;;;;;;;0.70;0.70;;;22.30;73.80;;;;;;5006561;28;20456;-78
2023/06/10 00:49:41;;;;;;;0.70;0.70;;;22.30;73.80;;;;;;5003296;28;20159;-78
2023/06/10 00:52:07;;;;;;;0.70;0.70;;;22.30;73.80;;;;;;5001569;28;20091;-78
2023/06/10 00:54:33;;;;;;;0.70;0.70;;;22.30;73.80;;;;;;4988096;28;20581;-78
2023/06/10 00:57:00;;;;;;;0.95;0.95;;;22.30;73.90;;;;;;4986861;28;20053;-78
2023/06/10 00:59:26;;;;;;;0.80;0.80;;;22.30;73.70;;;;;;5005277;28;20044;-78
2023/06/10 01:01:52;;;;;;;0.85;0.85;;;22.30;73.80;;;;;;5000991;28;20050;-78
2023/06/10 01:04:19;;;;;;;0.63;0.63;;;22.30;73.90;;;;;;5004026;28;20676;-78
2023/06/10 01:06:57;;;;;;;0.70;0.70;;;22.30;73.90;;;;;;4999467;28;20064;-77
2023/06/10 01:09:38;;;;;;;0.80;0.80;;;22.30;73.90;;;;;;5006247;28;20419;-78
2023/06/10 01:12:08;;;;;;;0.70;0.70;;;22.30;73.90;;;;;;4987647;28;20519;-78
2023/06/10 01:14:35;;;;;;;0.80;0.80;;;22.30;74.00;;;;;;5005845;28;20072;-78
2023/06/10 01:17:01;;;;;;;0.65;0.65;;;22.30;73.90;;;;;;4988982;28;20549;-78
2023/06/10 01:19:28;;;;;;;0.60;0.60;;;22.30;74.10;;;;;;5003668;28;20037;-78
2023/06/10 01:21:54;;;;;;;0.80;0.80;;;22.30;74.90;;;;;;5004738;28;20598;-78
2023/06/10 01:24:21;;;;;;;0.90;0.90;;;22.30;74.10;;;;;;5005316;28;20454;-78
2023/06/10 01:26:48;;;;;;;0.82;0.82;;;22.30;74.00;;;;;;5004482;28;20041;-78
2023/06/10 01:29:22;;;;;;;0.80;0.80;;;22.30;74.20;;;;;;5021179;28;20038;-77
2023/06/10 01:32:07;;;;;;;0.80;0.80;;;22.30;74.20;;;;;;5000619;28;20061;-78
2023/06/10 01:34:33;;;;;;;0.60;0.60;;;22.30;74.00;;;;;;4999493;28;20427;-78
2023/06/10 01:36:59;;;;;;;0.70;0.70;;;22.30;74.00;;;;;;5002273;28;20046;-78
2023/06/10 01:39:24;;;;;;;0.73;0.73;;;22.30;73.90;;;;;;5002275;28;20139;-77
2023/06/10 01:41:50;;;;;;;0.77;0.77;;;22.30;74.00;;;;;;5003476;28;20453;-77
2023/06/10 01:44:20;;;;;;;0.82;0.82;;;22.30;74.00;;;;;;5004455;28;20897;-78
2023/06/10 01:46:46;;;;;;;0.70;0.70;;;22.30;73.90;;;;;;5003625;28;20044;-77
2023/06/10 01:49:12;;;;;;;0.82;0.82;;;22.30;73.90;;;;;;5005121;28;20030;-77
2023/06/10 01:51:38;;;;;;;0.57;0.57;;;22.30;73.90;;;;;;5001543;28;20419;-77
2023/06/10 01:54:04;;;;;;;0.80;0.80;;;22.30;73.80;;;;;;5000518;28;20505;-77
2023/06/10 01:56:29;;;;;;;0.90;0.90;;;22.30;74.00;;;;;;5004487;28;20458;-77
2023/06/10 01:58:58;;;;;;;0.95;0.95;;;22.30;73.70;;;;;;5002662;28;20042;-77
2023/06/10 02:01:25;;;;;;;0.82;0.82;;;22.30;73.70;;;;;;5005100;28;20581;-77
2023/06/10 02:03:50;;;;;;;0.70;0.70;;;22.30;73.70;;;;;;5003565;28;20065;-77
2023/06/10 02:06:16;;;;;;;0.70;0.70;;;22.30;73.70;;;;;;5001819;28;20045;-77
2023/06/10 02:08:41;;;;;;;0.80;0.80;;;22.30;73.70;;;;;;5005267;28;20053;-77
2023/06/10 02:11:07;;;;;;;0.98;0.98;;;22.30;73.70;;;;;;5001896;28;20114;-77
2023/06/10 02:13:33;;;;;;;0.90;0.90;;;22.30;73.70;;;;;;5003454;28;20064;-77
2023/06/10 02:15:59;;;;;;;0.75;0.75;;;22.30;73.60;;;;;;5003067;28;20256;-77
2023/06/10 02:18:26;;;;;;;1.10;1.10;;;22.30;74.40;;;;;;5007042;28;20038;-77
2023/06/10 02:20:52;;;;;;;1.00;1.00;;;22.30;73.80;;;;;;5001708;28;20117;-77
2023/06/10 02:23:18;;;;;;;0.82;0.82;;;22.30;73.70;;;;;;5004784;28;20168;-77
2023/06/10 02:25:43;;;;;;;0.90;0.90;;;22.20;73.60;;;;;;5003763;28;20041;-77
2023/06/10 02:28:09;;;;;;;0.88;0.88;;;22.30;73.80;;;;;;5000481;28;20068;-77
2023/06/10 02:30:35;;;;;;;0.70;0.70;;;22.30;74.10;;;;;;5001103;28;20467;-77
2023/06/10 02:33:01;;;;;;;0.90;0.82;;;22.30;73.90;;;;;;4984471;28;20046;-78
2023/06/10 02:35:26;;;;;;;0.70;0.70;;;22.30;74.80;;;;;;5004631;28;20041;-77
2023/06/10 02:37:52;;;;;;;0.90;0.90;;;22.30;74.40;;;;;;5004455;28;20427;-77
2023/06/10 02:40:18;;;;;;;0.80;0.80;;;22.30;73.80;;;;;;5002318;28;20111;-78
2023/06/10 02:42:43;;;;;;;0.80;0.80;;;22.30;74.10;;;;;;5018897;28;20052;-77
2023/06/10 02:45:09;;;;;;;1.00;1.00;;;22.30;74.10;;;;;;5005010;28;20046;-77
2023/06/10 02:47:34;;;;;;;3.28;0.93;;;22.30;74.10;;;;;;5010002;28;20053;-78
2023/06/10 02:50:00;;;;;;;0.77;0.77;;;22.30;74.20;;;;;;5005639;28;20026;-77
2023/06/10 02:52:26;;;;;;;1.00;1.00;;;22.30;74.10;;;;;;5005953;28;20034;-77
2023/06/10 02:54:51;;;;;;;1.50;0.68;;;22.30;74.00;;;;;;5001477;28;20499;-77
2023/06/10 02:57:17;;;;;;;0.65;0.63;;;22.30;74.10;;;;;;4991000;28;20045;-78
2023/06/10 02:59:42;;;;;;;0.90;0.90;;;22.30;74.30;;;;;;5007456;28;20077;-78
2023/06/10 03:02:08;;;;;;;0.80;0.80;;;22.30;74.00;;;;;;5008996;28;20068;-77
2023/06/10 03:04:33;;;;;;;0.75;0.75;;;22.30;74.00;;;;;;4987674;28;20409;-77
2023/06/10 03:07:03;;;;;;;0.93;0.93;;;22.30;74.90;;;;;;5004981;28;20154;-77
2023/06/10 03:09:29;;;;;;;0.90;0.90;;;22.30;74.00;;;;;;5003341;28;20077;-77
2023/06/10 03:11:54;;;;;;;0.90;0.90;;;22.30;74.10;;;;;;5005477;28;20135;-77
2023/06/10 03:14:20;;;;;;;0.80;0.80;;;22.30;74.20;;;;;;5007898;28;20439;-77
2023/06/10 03:16:45;;;;;;;0.90;0.90;;;22.30;74.40;;;;;;5006959;28;20083;-77
2023/06/10 03:19:11;;;;;;;0.63;0.63;;;22.30;74.50;;;;;;5004318;28;20101;-78
2023/06/10 03:21:37;;;;;;;0.75;0.75;;;22.30;74.40;;;;;;5005923;28;20041;-77
2023/06/10 03:24:03;;;;;;;0.90;0.90;;;22.30;74.20;;;;;;5004122;28;20022;-77
2023/06/10 03:26:28;;;;;;;0.70;0.70;;;22.30;74.00;;;;;;5009373;28;20060;-78
2023/06/10 03:28:54;;;;;;;0.82;0.82;;;22.30;74.20;;;;;;5006625;28;20492;-77
2023/06/10 03:31:19;;;;;;;0.90;0.90;;;22.30;74.20;;;;;;5004584;28;20087;-77
2023/06/10 03:33:45;;;;;;;0.60;0.60;;;22.30;74.40;;;;;;4990155;28;20038;-77
2023/06/10 03:36:11;;;;;;;0.75;0.75;;;22.30;74.30;;;;;;5003828;28;20049;-77
2023/06/10 03:38:36;;;;;;;0.75;0.75;;;22.30;74.20;;;;;;5022400;28;20500;-78
2023/06/10 03:41:02;;;;;;;0.80;0.80;;;22.30;74.30;;;;;;5004637;28;20033;-77
2023/06/10 03:43:28;;;;;;;0.70;0.70;;;22.30;74.50;;;;;;5003168;28;20085;-77
2023/06/10 03:45:53;;;;;;;1.27;0.80;;;22.30;75.10;;;;;;5004411;28;20038;-77
2023/06/10 03:48:19;;;;;;;0.90;0.90;;;22.30;74.50;;;;;;5007044;28;20166;-77
2023/06/10 03:50:44;;;;;;;1.02;1.02;;;22.30;74.50;;;;;;5006393;28;20120;-77
2023/06/10 03:53:10;;;;;;;1.15;0.82;;;22.30;75.20;;;;;;5021408;28;20096;-77
2023/06/10 03:55:36;;;;;;;0.90;0.90;;;22.30;74.40;;;;;;5004278;28;20135;-77
2023/06/10 03:58:01;;;;;;;0.60;0.60;;;22.30;74.50;;;;;;5002741;28;20037;-77
2023/06/10 04:00:28;;;;;;;0.70;0.70;;;22.30;74.40;;;;;;5006802;28;20053;-77
2023/06/10 04:02:57;;;;;;;0.80;0.80;;;22.30;74.30;;;;;;5006221;28;20042;-78
2023/06/10 04:05:23;;;;;;;0.80;0.80;;;22.30;74.20;;;;;;5009678;28;20054;-78
2023/06/10 04:07:48;;;;;;;0.60;0.60;;;22.30;73.90;;;;;;5010429;28;20539;-78
2023/06/10 04:10:14;;;;;;;0.80;0.80;;;22.30;74.10;;;;;;5007005;28;20053;-77
2023/06/10 04:12:40;;;;;;;0.70;0.70;;;22.30;74.40;;;;;;4993241;28;20045;-77
2023/06/10 04:15:06;;;;;;;0.70;0.70;;;22.30;74.40;;;;;;5024069;28;20724;-77
2023/06/10 04:17:32;;;;;;;0.60;0.60;;;22.30;74.20;;;;;;5008458;28;20065;-77
2023/06/10 04:19:57;;;;;;;0.80;0.80;;;22.30;74.00;;;;;;5004225;28;20120;-77
2023/06/10 04:22:23;;;;;;;0.88;0.88;;;22.30;74.30;;;;;;5002891;28;20386;-77
2023/06/10 04:24:49;;;;;;;0.60;0.60;;;22.30;74.30;;;;;;5003101;28;20044;-77
2023/06/10 04:27:15;;;;;;;0.70;0.70;;;22.30;74.00;;;;;;5003930;28;20077;-77
2023/06/10 04:29:40;;;;;;;0.70;0.70;;;22.30;74.40;;;;;;5021715;28;20049;-77
2023/06/10 04:32:07;;;;;;;0.80;0.80;;;22.30;74.60;;;;;;5004095;28;20068;-78
2023/06/10 04:34:35;;;;;;;0.60;0.60;;;22.30;74.70;;;;;;5003647;28;20458;-78
2023/06/10 04:37:01;;;;;;;0.80;0.80;;;22.30;74.80;;;;;;4988756;28;20402;-77
2023/06/10 04:39:27;;;;;;;0.90;0.90;;;22.30;74.90;;;;;;4988031;28;20030;-77
2023/06/10 04:41:52;;;;;;;1.20;1.20;;;22.30;74.90;;;;;;5005914;28;20041;-78
2023/06/10 04:44:18;;;;;;;1.00;1.00;;;22.30;74.80;;;;;;5023937;28;20041;-78
2023/06/10 04:46:44;;;;;;;0.90;0.90;;;22.30;74.80;;;;;;5004322;28;20415;-78
2023/06/10 04:49:09;;;;;;;0.93;0.93;;;22.30;75.10;;;;;;5017617;28;20085;-78
2023/06/10 04:51:35;;;;;;;1.00;1.00;;;22.30;74.90;;;;;;5004799;28;20038;-78
2023/06/10 04:54:04;;;;;;;1.10;1.10;;;22.30;75.10;;;;;;5002544;28;20049;-78
2023/06/10 04:56:30;;;;;;;1.00;1.00;;;22.30;75.10;;;;;;5008099;28;20145;-77
2023/06/10 04:58:57;;;;;;;0.85;0.80;;;22.30;75.00;;;;;;5004926;28;20562;-78
2023/06/10 05:01:22;;;;;;;1.00;1.00;;;22.30;75.10;;;;;;5005705;28;20144;-78
2023/06/10 05:03:48;;;;;;;0.80;0.80;;;22.30;75.00;;;;;;5004550;28;20133;-78
2023/06/10 05:06:13;;;;;;;1.10;1.08;;;22.30;74.90;;;;;;4988339;28;20120;-77
2023/06/10 05:08:39;;;;;;;1.02;1.02;;;22.30;74.90;;;;;;5005394;28;20395;-78
2023/06/10 05:11:04;;;;;;;0.80;0.80;;;22.30;75.10;;;;;;5004562;28;20100;-77
2023/06/10 05:13:30;;;;;;;0.80;0.80;;;22.30;74.70;;;;;;5004116;28;20038;-77
2023/06/10 05:15:55;;;;;;;0.90;0.90;;;22.30;74.70;;;;;;5003989;28;20586;-78
2023/06/10 05:18:21;;;;;;;0.90;0.90;;;22.30;74.70;;;;;;5000356;28;20408;-78
2023/06/10 05:20:47;;;;;;;0.98;0.98;;;22.30;74.80;;;;;;5003368;28;20557;-81
2023/06/10 05:23:12;;;;;;;0.77;0.77;;;22.30;74.90;;;;;;5004078;28;20046;-81
2023/06/10 05:25:38;;;;;;;0.80;0.80;;;22.30;74.70;;;;;;4990908;28;20048;-81
2023/06/10 05:28:03;;;;;;;0.70;0.70;;;22.30;75.50;;;;;;5002834;28;20044;-81
2023/06/10 05:30:29;;;;;;;0.90;0.90;;;22.30;74.70;;;;;;4994691;28;20073;-81
2023/06/10 05:32:56;;;;;;;1.17;1.17;;;22.30;74.70;;;;;;5005623;28;20037;-81
2023/06/10 05:35:21;;;;;;;0.80;0.80;;;22.30;74.50;;;;;;5023201;28;20116;-80
2023/06/10 05:37:47;;;;;;;1.17;1.15;;;22.30;74.70;;;;;;4985284;28;20419;-81
2023/06/10 05:40:13;;;;;;;0.98;0.90;;;22.30;74.50;;;;;;5004201;28;20036;-81
2023/06/10 05:42:38;;;;;;;0.70;0.70;;;22.30;74.40;;;;;;5001324;28;20455;-81
2023/06/10 05:45:06;;;;;;;0.90;0.90;;;22.30;74.40;;;;;;5003647;28;20145;-81
2023/06/10 05:47:32;;;;;;;0.60;0.60;;;22.30;74.40;;;;;;5005221;28;20372;-81
2023/06/10 05:49:57;;;;;;;0.80;0.80;;;22.30;74.40;;;;;;5002688;28;20046;-81
2023/06/10 05:52:23;;;;;;;0.77;0.77;;;22.30;74.40;;;;;;5001016;28;20456;-81
2023/06/10 05:54:49;;;;;;;0.70;0.70;;;22.30;74.40;;;;;;5003503;28;20038;-81
2023/06/10 05:57:15;;;;;;;0.90;0.90;;;22.30;74.40;;;;;;5002131;28;20186;-81
2023/06/10 05:59:40;;;;;;;0.82;0.82;;;22.30;75.10;;;;;;5005456;28;20559;-81
2023/06/10 06:02:06;;;;;;;0.90;0.90;;;22.30;74.30;;;;;;5014168;28;20065;-81
2023/06/10 06:04:32;;;;;;;0.90;0.90;;;22.30;74.20;;;;;;5001546;28;20045;-81
2023/06/10 06:06:58;;;;;;;1.00;1.00;;;22.30;74.30;;;;;;5004989;28;20074;-81
2023/06/10 06:09:23;;;;;;;0.90;0.90;;;22.30;74.30;;;;;;4987326;28;20049;-81
2023/06/10 06:11:49;;;;;;;1.10;1.10;;;22.30;74.20;;;;;;5003401;28;20054;-81
2023/06/10 06:14:14;;;;;;;0.90;0.90;;;22.30;74.30;;;;;;5018854;28;20060;-81
2023/06/10 06:16:40;;;;;;;0.98;0.98;;;22.30;75.10;;;;;;5002467;28;20069;-82
2023/06/10 06:19:05;;;;;;;0.80;0.80;;;22.30;74.10;;;;;;4986467;28;20034;-81
2023/06/10 06:21:31;;;;;;;1.05;1.05;;;22.30;74.20;;;;;;5022704;28;20492;-82
2023/06/10 06:23:57;;;;;;;0.80;0.80;;;22.30;74.30;;;;;;5006613;28;20038;-82
2023/06/10 06:26:23;;;;;;;0.95;0.95;;;22.30;74.20;;;;;;4990164;28;20044;-81
2023/06/10 06:28:48;;;;;;;0.90;0.90;;;22.30;74.00;;;;;;5004059;28;20038;-82
2023/06/10 06:31:14;;;;;;;1.00;1.00;;;22.30;74.20;;;;;;4989857;28;20062;-81
2023/06/10 06:33:40;;;;;;;0.75;0.75;;;22.30;74.10;;;;;;5006709;28;20739;-82
2023/06/10 06:36:05;;;;;;;1.23;1.23;;;22.30;74.10;;;;;;5007493;28;20500;-81
2023/06/10 06:38:31;;;;;;;0.90;0.90;;;22.30;74.10;;;;;;5009360;28;20293;-81
2023/06/10 06:41:02;;;;;;;0.75;0.75;;;22.30;74.20;;;;;;4990548;28;20034;-82
2023/06/10 06:43:28;;;;;;;1.10;1.10;;;22.30;74.20;;;;;;5003984;28;20053;-81
2023/06/10 06:45:54;;;;;;;0.98;0.98;;;22.30;74.10;;;;;;5006706;28;20050;-82
2023/06/10 06:48:19;;;;;;;1.00;1.00;;;22.30;74.00;;;;;;5006276;28;20466;-81
2023/06/10 06:50:45;;;;;;;0.90;0.90;;;22.30;74.00;;;;;;5007555;28;20128;-82
2023/06/10 06:53:10;;;;;;;0.90;0.90;;;22.30;74.20;;;;;;5009634;28;20104;-81
2023/06/10 06:55:36;;;;;;;1.05;1.05;;;22.30;74.10;;;;;;5003869;28;20034;-81
2023/06/10 06:58:03;;;;;;;0.70;0.70;;;22.30;74.10;;;;;;5001601;28;20050;-82
2023/06/10 07:00:29;;;;;;;0.80;0.80;;;22.30;74.20;;;;;;4981663;28;20584;-81
2023/06/10 07:02:56;;;;;;;1.00;1.00;;;22.30;74.20;;;;;;5007689;28;20392;-81
2023/06/10 07:05:23;;;;;;;0.98;0.98;;;22.30;74.10;;;;;;4998997;28;20031;-82
2023/06/10 07:07:54;;;;;;;1.10;1.10;;;22.30;74.00;;;;;;5005912;28;20041;-82
2023/06/10 07:10:23;;;;;;;0.90;0.90;;;22.30;74.10;;;;;;5005638;28;20444;-82
2023/06/10 07:12:49;;;;;;;1.00;1.00;;;22.30;74.10;;;;;;5005510;28;20046;-82
2023/06/10 07:15:14;;;;;;;0.85;0.85;;;22.30;74.10;;;;;;5004343;28;20069;-82
2023/06/10 07:17:40;;;;;;;1.10;1.10;;;22.30;74.30;;;;;;5006423;28;20045;-82
2023/06/10 07:20:06;;;;;;;0.80;0.80;;;22.30;74.10;;;;;;5007380;28;20396;-81
2023/06/10 07:22:31;;;;;;;1.00;1.00;;;22.30;74.10;;;;;;5004923;28;20098;-82
2023/06/10 07:24:57;;;;;;;1.40;1.30;;;22.30;74.00;;;;;;5008816;28;20045;-82
2023/06/10 07:27:23;;;;;;;0.98;0.98;;;22.30;74.20;;;;;;4991600;28;20061;-82
2023/06/10 07:29:49;;;;;;;1.10;1.10;;;22.30;74.00;;;;;;4988083;28;20034;-82
2023/06/10 07:32:14;;;;;;;1.10;1.10;;;22.30;74.00;;;;;;5003223;28;20492;-82
2023/06/10 07:34:40;;;;;;;1.20;1.20;;;22.30;74.20;;;;;;5004503;28;20026;-82
2023/06/10 07:37:05;;;;;;;1.30;1.30;;;22.30;74.10;;;;;;5000804;28;20030;-80
2023/06/10 07:39:31;;;;;;;0.98;0.98;;;22.30;74.20;;;;;;5003953;28;20051;-82
2023/06/10 07:41:57;;;;;;;0.73;0.73;;;22.30;74.40;;;;;;5006137;28;20069;-82
2023/06/10 07:44:23;;;;;;;0.80;0.80;;;22.30;74.00;;;;;;5007611;28;20558;-83
2023/06/10 07:46:48;;;;;;;0.80;0.80;;;22.30;74.00;;;;;;5005279;28;20050;-83
2023/06/10 07:49:14;;;;;;;1.00;1.00;;;22.30;73.90;;;;;;5004803;28;20410;-82
2023/06/10 07:51:39;;;;;;;1.10;1.10;;;22.30;74.00;;;;;;4990036;28;20066;-82
2023/06/10 07:54:05;;;;;;;0.93;0.93;;;22.30;73.80;;;;;;5009035;28;20034;-82
2023/06/10 07:56:31;;;;;;;1.10;1.10;;;22.30;73.90;;;;;;5007928;28;20065;-85
2023/06/10 07:58:57;;;;;;;1.23;1.23;;;22.30;74.00;;;;;;5004604;28;20038;-82
2023/06/10 08:01:23;;;;;;;1.33;1.33;;;22.30;73.90;;;;;;5003030;28;20050;-88
2023/06/10 08:03:48;;;;;;;1.20;1.20;;;22.30;73.90;;;;;;5005351;28;20053;-89
2023/06/10 08:06:14;;;;;;;1.15;1.15;;;22.30;73.80;;;;;;5020636;28;20038;-87
2023/06/10 08:08:42;;;;;;;1.25;1.23;;;22.30;73.70;;;;;;5004883;28;20605;-88
2023/06/10 08:11:08;;;;;;;1.17;1.17;;;22.40;73.90;;;;;;4983067;28;1084249;-87
2023/06/10 08:13:33;;;;;;;2.05;1.17;;;22.40;73.80;;;;;;5004422;28;20045;-88
2023/06/10 08:15:59;;;;;;;1.02;1.02;;;22.30;73.60;;;;;;4994821;28;20046;-89
2023/06/10 08:18:25;;;;;;;1.33;1.30;;;22.40;73.60;;;;;;5004393;28;20069;-89
2023/06/10 08:20:50;;;;;;;1.30;1.30;;;22.40;73.50;;;;;;4992542;28;20514;-88
2023/06/10 08:23:16;;;;;;;1.13;1.13;;;22.40;73.40;;;;;;5019797;28;20046;-89
2023/06/10 08:25:41;;;;;;;1.20;1.20;;;22.40;73.70;;;;;;4989368;28;20088;-88
2023/06/10 08:28:07;;;;;;;0.90;0.90;;;22.40;73.60;;;;;;5003412;28;20427;-89
2023/06/10 08:30:32;;;;;;;1.10;1.10;;;22.40;73.50;;;;;;5005626;28;20056;-88
2023/06/10 08:32:58;;;;;;;1.00;1.00;;;22.40;73.50;;;;;;5006461;28;20938;-89
2023/06/10 08:35:23;;;;;;;1.42;1.42;;;22.40;73.60;;;;;;5008516;28;20048;-87
2023/06/10 08:37:49;;;;;;;1.60;1.50;;;22.40;73.60;;;;;;5006899;28;20121;-89
2023/06/10 08:40:15;;;;;;;1.27;1.27;;;22.40;73.60;;;;;;5005078;28;20124;-90
2023/06/10 08:42:49;;;;;;;1.20;1.20;;;22.40;73.80;;;;;;5006629;28;20128;-88
2023/06/10 08:45:17;;;;;;;1.40;1.40;;;22.40;73.80;;;;;;5017756;28;20045;-87
2023/06/10 08:47:44;;;;;;;1.50;1.50;;;22.40;73.90;;;;;;5004218;28;20026;-89
2023/06/10 08:50:10;;;;;;;1.23;1.23;;;22.40;73.90;;;;;;5009476;28;20428;-86
2023/06/10 08:52:37;;;;;;;1.02;1.02;;;22.40;74.60;;;;;;5005498;28;20126;-89
2023/06/10 08:55:12;;;;;;;1.20;1.20;;;22.40;73.80;;;;;;4989299;28;20053;-89
2023/06/10 08:57:38;;;;;;;1.30;1.30;;;22.40;73.90;;;;;;5005653;28;20041;-88
2023/06/10 09:00:04;;;;;;;1.17;1.17;;;22.40;73.80;;;;;;4988711;28;20420;-86
2023/06/10 09:02:30;;;;;;;1.08;1.08;;;22.40;73.80;;;;;;5006304;28;20061;-85
2023/06/10 09:04:56;;;;;;;1.55;1.33;;;22.50;74.00;;;;;;5004511;28;20042;-85
2023/06/10 09:07:22;;;;;;;1.50;1.40;;;22.40;73.80;;;;;;5002595;28;20577;-85
2023/06/10 09:09:48;;;;;;;1.20;1.20;;;22.40;73.90;;;;;;5003559;28;20050;-84
2023/06/10 09:12:14;;;;;;;1.60;1.60;;;22.50;74.00;;;;;;5010925;28;20411;-84
2023/06/10 09:14:40;;;;;;;2.08;1.23;;;22.50;74.10;;;;;;5005016;28;20505;-84
2023/06/10 09:17:06;;;;;;;1.40;1.40;;;22.40;74.10;;;;;;5001484;28;20100;-84
2023/06/10 09:19:31;;;;;;;1.30;1.30;;;22.50;74.00;;;;;;5006029;28;20455;-84
2023/06/10 09:21:58;;;;;;;1.10;1.10;;;22.40;74.00;;;;;;5003612;28;20057;-83
2023/06/10 09:24:24;;;;;;;1.30;1.30;;;22.50;74.00;;;;;;5001406;28;20065;-83
2023/06/10 09:26:50;;;;;;;1.27;1.20;;;22.50;74.00;;;;;;4987918;28;20065;-83
2023/06/10 09:29:16;;;;;;;1.33;1.20;;;22.40;74.00;;;;;;5002085;28;20068;-84
2023/06/10 09:31:42;;;;;;;1.98;1.58;;;22.50;74.00;;;;;;5002436;28;20045;-84
2023/06/10 09:34:14;;;;;;;1.40;1.35;;;22.50;73.90;;;;;;4999087;28;20054;-85
2023/06/10 09:36:40;;;;;;;1.47;1.47;;;22.40;73.90;;;;;;4295576;28;10021473;-84
2023/06/10 09:39:15;;;;;;;1.40;1.40;;;22.50;74.00;;;;;;4998621;28;20042;-84
2023/06/10 09:41:41;;;;;;;1.40;1.40;;;22.50;74.00;;;;;;4998879;28;20156;-85
2023/06/10 09:44:18;;;;;;;1.50;1.50;;;22.40;73.80;;;;;;5001458;28;20038;-84
2023/06/10 09:46:48;;;;;;;1.50;1.50;;;22.50;73.80;;;;;;4986972;28;20540;-84
2023/06/10 09:49:13;;;;;;;1.30;1.30;;;22.50;73.80;;;;;;5000133;28;20577;-83
2023/06/10 09:51:52;;;;;;;1.10;1.10;;;22.50;73.80;;;;;;5005575;28;20045;-84
2023/06/10 09:54:18;;;;;;;1.40;1.40;;;22.40;73.80;;;;;;5013116;28;20052;-84
2023/06/10 09:56:46;;;;;;;1.30;1.30;;;22.40;74.70;;;;;;5015872;28;20033;-84
2023/06/10 09:59:11;;;;;;;1.20;1.20;;;22.50;73.90;;;;;;5016371;28;20057;-84
2023/06/10 10:01:37;;;;;;;1.30;1.30;;;22.50;73.80;;;;;;4983542;28;20038;-83
2023/06/10 10:04:03;;;;;;;1.40;1.30;;;22.40;73.70;;;;;;4999538;28;20546;-83
2023/06/10 10:06:29;;;;;;;1.40;1.40;;;22.50;74.00;;;;;;4983871;28;20053;-84
2023/06/10 10:08:55;;;;;;;1.67;1.60;;;22.50;73.90;;;;;;4985434;28;20038;-83
2023/06/10 10:11:22;;;;;;;1.30;1.30;;;22.40;73.80;;;;;;4990588;28;20056;-83
2023/06/10 10:13:48;;;;;;;1.38;1.38;;;22.50;73.70;;;;;;4984507;28;20617;-84
2023/06/10 10:16:22;;;;;;;1.10;1.10;;;22.50;73.70;;;;;;5001887;28;20498;-84
2023/06/10 10:19:14;;;;;;;1.35;1.35;;;22.50;73.60;;;;;;4981099;28;20440;-84
2023/06/10 10:21:46;;;;;;;1.52;1.52;;;22.50;73.80;;;;;;4999326;28;20050;-84
2023/06/10 10:24:21;;;;;;;1.38;1.38;;;22.50;73.70;;;;;;4984157;28;20050;-85
2023/06/10 10:26:48;;;;;;;1.27;1.27;;;22.50;73.70;;;;;;5002005;28;20373;-83
2023/06/10 10:29:24;;;;;;;1.40;1.40;;;22.50;73.70;;;;;;5014701;28;20050;-82
2023/06/10 10:31:53;;;;;;;1.00;1.00;;;22.50;73.70;;;;;;5013722;28;20125;-87
2023/06/10 10:34:25;;;;;;;1.75;1.70;;;22.40;73.60;;;;;;4985750;28;20610;-86
2023/06/10 10:36:51;;;;;;;1.88;1.77;;;22.50;74.00;;;;;;4998644;28;20054;-85
2023/06/10 10:39:17;;;;;;;2.72;2.53;;;22.50;74.80;;;;;;4983445;28;20057;-84
2023/06/10 10:41:42;;;;;;;2.10;2.00;;;22.50;76.00;;;;;;4985467;28;20046;-84
2023/06/10 10:44:09;;;;;;;2.10;2.00;;;22.50;76.80;;;;;;4992303;28;20204;-83
2023/06/10 10:46:44;;;;;;;2.03;1.92;;;22.50;74.80;;;;;;4993843;28;20057;-83
2023/06/10 10:49:11;;;;;;;2.05;1.95;;;22.50;75.30;;;;;;4997980;28;20095;-84
2023/06/10 10:51:37;;;;;;;2.20;2.10;;;22.60;77.40;;;;;;4996565;28;20046;-84
2023/06/10 10:54:12;;;;;;;2.00;1.90;;;22.60;76.90;;;;;;5001795;28;20045;-82
2023/06/10 10:56:38;;;;;;;2.10;2.00;;;22.60;75.60;;;;;;5003332;28;20030;-84
2023/06/10 10:59:04;;;;;;;1.58;1.58;;;22.60;75.40;;;;;;4992571;28;20408;-78
2023/06/10 11:01:40;;;;;;;2.10;2.00;;;22.60;75.30;;;;;;5006720;28;20072;-82
2023/06/10 11:04:08;;;;;;;1.60;1.60;;;22.60;75.30;;;;;;5014674;28;20117;-81
2023/06/10 11:06:33;;;;;;;1.73;1.73;;;22.60;75.40;;;;;;4999278;28;20038;-80
2023/06/10 11:09:00;;;;;;;2.58;1.40;;;22.60;75.10;;;;;;4984966;28;20041;-81
2023/06/10 11:11:27;;;;;;;1.40;1.40;;;22.50;75.80;;;;;;5006859;28;20385;-81
2023/06/10 11:14:02;;;;;;;1.58;1.58;;;22.50;74.80;;;;;;4990799;28;20108;-81
2023/06/10 11:16:28;;;;;;;1.90;1.27;;;22.50;74.80;;;;;;5002507;28;20050;-81
2023/06/10 11:18:54;;;;;;;1.70;1.70;;;22.60;74.70;;;;;;4998376;28;20040;-82
2023/06/10 11:21:20;;;;;;;1.75;1.65;;;22.60;74.60;;;;;;4993403;28;20096;-81
2023/06/10 11:23:46;;;;;;;1.80;1.70;;;22.50;74.60;;;;;;5004741;28;20045;-81
2023/06/10 11:26:34;;;;;;;1.40;1.40;;;22.50;74.50;;;;;;5004151;28;20050;-83
2023/06/10 11:29:03;;;;;;;1.60;1.60;;;22.50;74.50;;;;;;5002180;28;20092;-82
2023/06/10 11:31:32;;;;;;;1.90;1.90;;;22.50;74.40;;;;;;5000246;28;20041;-83
2023/06/10 11:34:06;;;;;;;1.60;1.60;;;22.50;74.40;;;;;;5006011;28;20049;-83
2023/06/10 11:36:32;;;;;;;1.70;1.60;;;22.50;74.40;;;;;;5002387;28;20042;-82
2023/06/10 11:38:59;;;;;;;1.80;1.70;;;22.50;74.20;;;;;;5002477;28;20104;-83
2023/06/10 11:41:28;;;;;;;1.60;1.50;;;22.50;74.10;;;;;;5003035;28;20049;-82
2023/06/10 11:43:57;;;;;;;1.48;1.48;;;22.50;74.00;;;;;;5002073;28;20046;-82
2023/06/10 11:46:22;;;;;;;1.40;1.40;;;22.60;74.10;;;;;;4999865;28;20081;-81
2023/06/10 11:48:52;;;;;;;1.30;1.30;;;22.50;74.00;;;;;;5003756;28;20050;-83
2023/06/10 11:51:18;;;;;;;1.20;1.20;;;22.60;73.90;;;;;;5005666;28;20100;-83
2023/06/10 11:53:45;;;;;;;1.35;1.35;;;22.60;74.00;;;;;;5004931;28;20050;-86
2023/06/10 11:56:10;;;;;;;1.80;1.70;;;22.60;73.80;;;;;;5001867;28;20045;-88
2023/06/10 11:58:36;;;;;;;1.52;1.52;;;22.60;73.80;;;;;;5002475;28;20103;-85
2023/06/10 12:01:01;;;;;;;1.60;1.60;;;22.60;73.70;;;;;;5006168;28;21193;-85
2023/06/10 12:03:27;;;;;;;1.73;1.63;;;22.60;73.70;;;;;;5003352;28;20045;-86
2023/06/10 12:06:02;;;;;;;1.40;1.40;;;22.60;73.60;;;;;;5001900;28;20300;-86
2023/06/10 12:08:28;;;;;;;1.40;1.40;;;22.60;73.50;;;;;;5002740;28;20052;-86
2023/06/10 12:10:54;;;;;;;1.20;1.20;;;22.70;73.40;;;;;;5009381;28;20030;-87
2023/06/10 12:13:19;;;;;;;1.40;1.40;;;22.70;73.40;;;;;;5005024;28;20054;-86
2023/06/10 12:15:46;;;;;;;1.67;1.67;;;22.70;73.40;;;;;;5003783;28;20121;-85
2023/06/10 12:18:23;;;;;;;1.70;1.50;;;22.70;73.40;;;;;;5004250;28;20043;-85
2023/06/10 12:20:50;;;;;;;1.40;1.40;;;22.70;73.40;;;;;;5004955;28;20038;-86
2023/06/10 12:23:17;;;;;;;1.50;1.50;;;22.70;73.30;;;;;;5007268;28;20042;-84
2023/06/10 12:25:52;;;;;;;1.70;1.70;;;22.70;73.20;;;;;;5004828;28;20041;-84
2023/06/10 12:28:21;;;;;;;1.70;1.70;;;22.70;73.20;;;;;;5005254;28;20041;-87
2023/06/10 12:30:46;;;;;;;1.67;1.58;;;22.70;73.30;;;;;;5003953;28;20037;-85
2023/06/10 12:33:22;;;;;;;1.85;1.75;;;22.80;73.20;;;;;;4994693;28;20037;-84
2023/06/10 12:35:49;;;;;;;1.75;1.75;;;22.80;73.00;;;;;;5004321;28;20041;-84
2023/06/10 12:38:14;;;;;;;1.55;1.50;;;22.80;73.20;;;;;;5022016;28;20080;-86
2023/06/10 12:40:40;;;;;;;1.75;1.75;;;22.80;73.10;;;;;;5003833;28;20058;-85
2023/06/10 12:43:06;;;;;;;1.85;1.77;;;22.80;72.80;;;;;;5004416;28;20153;-85